Edmonton Namao Alta., Canada
Current Conditions -  °F | °C
As of 3:00 PM on Friday 19 Dec 2014 (Local Time) from CYXD Reporting Station
Clear Clear  
Wind Chill: -7°   Ceiling: Unl
Heat Index: -3°   Visibility: 9mi
Dew Point: -7°   Wind: 6mph
Humidity: 74%   Direction: 180°S
Pressure: 29.66"   Gusts: NA
Location:  53.61°N, 113.46°W
Report Text: CYXD 192200Z AUTO 18005KT 9SM CLR M03/M07 A2966 RMK SLP082
Loading
Personal Weather Stations






























Interactive Weather Map New forecast layout! Learn more

10-Day Weather Forecast

Advertisements
Track Severe Weather on mobile